Time;durP1;ratioP1;P1;durP2;ratioP2;P2;SDS_P1;SDS_P2;PMS_P1;PMS_P2;Temp;Humidity;BMP_temperature;BMP_pressure;BME280_temperature;BME280_humidity;BME280_pressure;Samples;Min_cycle;Max_cycle;Signal;HPM_P1;HPM_P2
2023/08/30 00:01:35;;;;;;;21.25;13.35;;;11.90;99.90;;;;;;4987243;28;20148;-78
2023/08/30 00:04:00;;;;;;;19.10;12.43;;;11.90;99.90;;;;;;4997927;28;20040;-79
2023/08/30 00:06:26;;;;;;;18.67;12.00;;;11.90;99.90;;;;;;4973706;28;20049;-78
2023/08/30 00:08:51;;;;;;;18.42;12.77;;;11.80;99.90;;;;;;4996974;28;20090;-78
2023/08/30 00:11:17;;;;;;;20.02;12.43;;;11.70;99.90;;;;;;4987501;28;20398;-78
2023/08/30 00:13:42;;;;;;;17.80;11.90;;;11.60;99.90;;;;;;5004555;28;20034;-77
2023/08/30 00:16:08;;;;;;;17.95;12.02;;;11.70;99.90;;;;;;4983753;28;20085;-77
2023/08/30 00:18:34;;;;;;;16.67;11.70;;;11.60;99.90;;;;;;4984242;28;20125;-78
2023/08/30 00:20:59;;;;;;;19.55;12.05;;;11.60;99.90;;;;;;4982938;28;20600;-78
2023/08/30 00:23:25;;;;;;;17.67;12.32;;;11.50;99.90;;;;;;5004586;28;20132;-78
2023/08/30 00:25:51;;;;;;;17.48;11.73;;;11.50;99.90;;;;;;5004088;28;20073;-77
2023/08/30 00:28:16;;;;;;;19.35;12.48;;;11.50;99.90;;;;;;5000508;28;20034;-78
2023/08/30 00:30:42;;;;;;;18.63;11.90;;;11.50;99.90;;;;;;4987290;28;20050;-77
2023/08/30 00:33:07;;;;;;;19.88;12.68;;;11.50;99.90;;;;;;4985909;28;20046;-77
2023/08/30 00:35:33;;;;;;;18.70;12.15;;;11.60;99.90;;;;;;4993069;28;20070;-77
2023/08/30 00:37:59;;;;;;;19.58;12.98;;;11.60;99.90;;;;;;4986588;28;20096;-78
2023/08/30 00:40:25;;;;;;;19.55;12.02;;;11.60;99.90;;;;;;4989392;28;20050;-77
2023/08/30 00:42:51;;;;;;;19.20;11.73;;;11.70;99.90;;;;;;4987525;28;20034;-78
2023/08/30 00:45:17;;;;;;;18.85;12.60;;;11.70;99.90;;;;;;5004749;28;20050;-78
2023/08/30 00:47:42;;;;;;;19.52;11.10;;;11.80;99.90;;;;;;4995693;28;20038;-77
2023/08/30 00:50:09;;;;;;;18.40;11.35;;;11.80;99.90;;;;;;4989974;28;20129;-78
2023/08/30 00:52:35;;;;;;;18.90;11.98;;;11.80;99.90;;;;;;4968150;28;20379;-78
2023/08/30 00:55:01;;;;;;;18.00;11.48;;;11.90;99.90;;;;;;4990317;28;20041;-77
2023/08/30 00:57:26;;;;;;;19.67;11.95;;;11.90;99.90;;;;;;4969618;28;20401;-77
2023/08/30 00:59:53;;;;;;;17.63;11.55;;;12.00;99.90;;;;;;4988658;28;20042;-77
2023/08/30 01:02:19;;;;;;;16.42;11.25;;;12.00;99.90;;;;;;4987795;28;20081;-77
2023/08/30 01:04:45;;;;;;;17.10;11.73;;;12.00;99.90;;;;;;4985516;28;20473;-77
2023/08/30 01:07:11;;;;;;;17.33;11.13;;;12.00;99.90;;;;;;5003588;28;20050;-77
2023/08/30 01:09:37;;;;;;;18.02;10.68;;;12.00;99.90;;;;;;4995276;28;20030;-79
2023/08/30 01:12:24;;;;;;;18.02;10.77;;;12.00;99.90;;;;;;5003647;28;20730;-77
2023/08/30 01:15:09;;;;;;;18.83;11.13;;;12.00;99.90;;;;;;4982186;28;20042;-77
2023/08/30 01:17:35;;;;;;;16.25;10.65;;;12.00;99.90;;;;;;4985247;28;20046;-77
2023/08/30 01:20:20;;;;;;;16.08;10.43;;;12.00;99.90;;;;;;4987012;28;20046;-77
2023/08/30 01:23:05;;;;;;;16.90;10.32;;;12.00;99.90;;;;;;4976109;28;20140;-77
2023/08/30 01:25:57;;;;;;;15.98;10.68;;;12.00;99.90;;;;;;4999504;28;20096;-77
2023/08/30 01:28:26;;;;;;;18.88;10.60;;;12.00;99.90;;;;;;5003692;28;20038;-77
2023/08/30 01:30:57;;;;;;;15.45;9.60;;;12.00;99.90;;;;;;4983752;28;20521;-77
2023/08/30 01:33:26;;;;;;;13.88;9.05;;;12.00;99.90;;;;;;4987459;28;20451;-77
2023/08/30 01:35:54;;;;;;;16.88;9.60;;;12.00;99.90;;;;;;4986137;28;20041;-77
2023/08/30 01:38:22;;;;;;;15.35;9.95;;;12.00;99.90;;;;;;4984895;28;20540;-77
2023/08/30 01:40:48;;;;;;;14.65;9.75;;;12.00;99.90;;;;;;4968543;28;20122;-78
2023/08/30 01:43:15;;;;;;;15.57;9.63;;;12.00;99.90;;;;;;5003329;28;20115;-77
2023/08/30 01:45:43;;;;;;;12.75;9.18;;;12.00;99.90;;;;;;4968134;28;20038;-77
2023/08/30 01:48:12;;;;;;;14.00;9.25;;;12.00;99.90;;;;;;5002103;28;20053;-77
2023/08/30 01:50:40;;;;;;;16.02;9.20;;;12.10;99.90;;;;;;4994438;28;20042;-78
2023/08/30 01:53:08;;;;;;;15.07;9.35;;;12.10;99.90;;;;;;4984365;28;20474;-78
2023/08/30 01:55:35;;;;;;;14.13;8.95;;;12.10;99.90;;;;;;5006473;28;20168;-78
2023/08/30 01:58:00;;;;;;;13.48;8.85;;;12.10;99.90;;;;;;4985720;28;20042;-78
2023/08/30 02:00:26;;;;;;;12.88;8.32;;;12.10;99.90;;;;;;4984549;28;20513;-78
2023/08/30 02:02:52;;;;;;;12.88;8.48;;;12.10;99.90;;;;;;4985379;28;20495;-78
2023/08/30 02:05:17;;;;;;;13.45;8.57;;;12.10;99.90;;;;;;5001753;28;20137;-78
2023/08/30 02:08:09;;;;;;;15.05;9.20;;;12.10;99.90;;;;;;4989512;28;20176;-78
2023/08/30 02:10:39;;;;;;;14.27;8.52;;;12.10;99.90;;;;;;4982489;28;20663;-78
2023/08/30 02:13:06;;;;;;;12.98;8.32;;;12.10;99.90;;;;;;4992209;28;20153;-78
2023/08/30 02:15:35;;;;;;;11.38;8.02;;;12.10;99.90;;;;;;4988507;28;20449;-78
2023/08/30 02:18:03;;;;;;;12.73;8.60;;;12.00;99.90;;;;;;4985415;28;20064;-78
2023/08/30 02:20:28;;;;;;;12.45;8.57;;;12.00;99.90;;;;;;4980984;28;20046;-78
2023/08/30 02:22:58;;;;;;;12.88;8.60;;;12.00;99.90;;;;;;4986509;28;20129;-78
2023/08/30 02:25:26;;;;;;;13.73;9.05;;;11.90;99.90;;;;;;4979361;28;20639;-78
2023/08/30 02:27:52;;;;;;;13.38;8.95;;;11.80;99.90;;;;;;4990538;28;20118;-78
2023/08/30 02:30:17;;;;;;;13.00;8.65;;;11.70;99.90;;;;;;4993576;28;20050;-78
2023/08/30 02:32:43;;;;;;;12.60;8.68;;;11.50;99.90;;;;;;4987515;28;20046;-78
2023/08/30 02:35:09;;;;;;;13.95;9.50;;;11.50;99.90;;;;;;4987355;28;20500;-78
2023/08/30 02:37:34;;;;;;;12.23;8.85;;;11.50;99.90;;;;;;4996115;28;20042;-77
2023/08/30 02:40:00;;;;;;;12.55;8.43;;;11.40;99.90;;;;;;4972159;28;20045;-78
2023/08/30 02:42:26;;;;;;;12.88;9.43;;;11.30;99.90;;;;;;4987063;28;20034;-78
2023/08/30 02:44:53;;;;;;;13.27;8.57;;;11.20;99.90;;;;;;4990691;28;20558;-77
2023/08/30 02:47:18;;;;;;;14.43;8.95;;;11.20;99.90;;;;;;4977302;28;20038;-77
2023/08/30 02:49:44;;;;;;;14.88;8.82;;;11.20;99.90;;;;;;4974352;28;20088;-77
2023/08/30 02:52:09;;;;;;;13.13;8.88;;;11.20;99.90;;;;;;4974140;28;20038;-77
2023/08/30 02:54:35;;;;;;;13.55;9.23;;;11.10;99.90;;;;;;5007916;28;20038;-77
2023/08/30 02:57:01;;;;;;;16.38;9.77;;;11.10;99.90;;;;;;4978525;28;20504;-78
2023/08/30 02:59:26;;;;;;;14.45;8.90;;;11.10;99.90;;;;;;4986980;28;20041;-77
2023/08/30 03:01:52;;;;;;;14.98;9.70;;;11.10;99.90;;;;;;4987076;28;20041;-77
2023/08/30 03:04:17;;;;;;;14.63;9.40;;;11.10;99.90;;;;;;5005874;28;20046;-77
2023/08/30 03:06:43;;;;;;;16.42;9.68;;;11.20;99.90;;;;;;5007102;28;20038;-77
2023/08/30 03:09:08;;;;;;;14.93;10.13;;;11.20;99.90;;;;;;5010430;28;20172;-77
2023/08/30 03:11:34;;;;;;;17.08;9.68;;;11.30;99.90;;;;;;4973931;28;20496;-77
2023/08/30 03:14:00;;;;;;;13.77;8.98;;;11.30;99.90;;;;;;4995654;28;20050;-77
2023/08/30 03:16:25;;;;;;;19.08;10.82;;;11.30;99.90;;;;;;5004983;28;20035;-77
2023/08/30 03:18:51;;;;;;;14.65;10.10;;;11.30;99.90;;;;;;4998518;28;20464;-77
2023/08/30 03:21:17;;;;;;;16.10;9.18;;;11.20;99.90;;;;;;4988112;28;20034;-78
2023/08/30 03:23:43;;;;;;;14.15;9.63;;;11.20;99.90;;;;;;4997418;28;20034;-77
2023/08/30 03:26:16;;;;;;;14.57;8.82;;;11.10;99.90;;;;;;5004701;28;20089;-77
2023/08/30 03:28:43;;;;;;;16.00;9.27;;;11.00;99.90;;;;;;4977981;28;20042;-77
2023/08/30 03:31:17;;;;;;;14.18;8.93;;;10.90;99.90;;;;;;4991639;28;20056;-77
2023/08/30 03:33:43;;;;;;;13.52;9.07;;;10.90;99.90;;;;;;4983344;28;20053;-77
2023/08/30 03:36:15;;;;;;;14.07;9.30;;;10.80;99.90;;;;;;4988009;28;20080;-77
2023/08/30 03:38:42;;;;;;;13.48;9.55;;;10.80;99.90;;;;;;4992877;28;20053;-77
2023/08/30 03:41:09;;;;;;;16.08;10.18;;;10.70;99.90;;;;;;4970692;28;20489;-77
2023/08/30 03:43:34;;;;;;;13.13;9.45;;;10.60;99.90;;;;;;5006096;28;20044;-77
2023/08/30 03:46:01;;;;;;;13.68;8.95;;;10.50;99.90;;;;;;4987098;28;20025;-77
2023/08/30 03:48:27;;;;;;;14.15;9.13;;;10.50;99.90;;;;;;4996073;28;20046;-76
2023/08/30 03:50:54;;;;;;;15.52;9.32;;;10.50;99.90;;;;;;4990182;28;20048;-77
2023/08/30 03:53:20;;;;;;;15.25;10.13;;;10.50;99.90;;;;;;4993262;28;20096;-77
2023/08/30 03:55:46;;;;;;;16.90;9.60;;;10.50;99.90;;;;;;4979777;28;20042;-77
2023/08/30 03:58:11;;;;;;;16.70;9.55;;;10.50;99.90;;;;;;4988944;28;20042;-77
2023/08/30 04:00:38;;;;;;;16.15;9.55;;;10.40;99.90;;;;;;4972386;28;20042;-77
2023/08/30 04:03:04;;;;;;;16.48;10.30;;;10.40;99.90;;;;;;4995010;28;20046;-77
2023/08/30 04:05:34;;;;;;;16.45;9.98;;;10.40;99.90;;;;;;4978435;28;20089;-77
2023/08/30 04:08:00;;;;;;;17.00;10.00;;;10.30;99.90;;;;;;5004514;28;20409;-77
2023/08/30 04:10:26;;;;;;;18.02;10.63;;;10.30;99.90;;;;;;4980968;28;20042;-76
2023/08/30 04:12:51;;;;;;;15.20;9.98;;;10.30;99.90;;;;;;4966393;28;20041;-77
2023/08/30 04:15:17;;;;;;;15.90;10.10;;;10.30;99.90;;;;;;4985591;28;20042;-77
2023/08/30 04:17:43;;;;;;;15.23;10.07;;;10.30;99.90;;;;;;4986149;28;20121;-77
2023/08/30 04:20:10;;;;;;;17.77;9.50;;;10.30;99.90;;;;;;5004793;28;20060;-78
2023/08/30 04:22:36;;;;;;;14.85;10.43;;;10.40;99.90;;;;;;5002075;28;20046;-78
2023/08/30 04:25:03;;;;;;;15.27;10.55;;;10.50;99.90;;;;;;4989298;28;20125;-78
2023/08/30 04:27:29;;;;;;;17.75;10.90;;;10.60;99.90;;;;;;4989022;28;20498;-77
2023/08/30 04:29:54;;;;;;;17.08;10.57;;;10.70;99.90;;;;;;4999958;28;20065;-77
2023/08/30 04:32:20;;;;;;;16.67;9.98;;;10.80;99.90;;;;;;5004614;28;20404;-77
2023/08/30 04:34:46;;;;;;;14.40;9.50;;;10.90;99.90;;;;;;5002103;28;20096;-78
2023/08/30 04:37:11;;;;;;;16.00;10.07;;;10.90;99.90;;;;;;4989636;28;20070;-77
2023/08/30 04:39:37;;;;;;;16.63;10.23;;;11.10;99.90;;;;;;5001758;28;20038;-78
2023/08/30 04:42:03;;;;;;;16.13;9.82;;;11.10;99.90;;;;;;4984727;28;20149;-76
2023/08/30 04:44:29;;;;;;;14.75;10.02;;;11.20;99.90;;;;;;4989589;28;20664;-77
2023/08/30 04:46:55;;;;;;;15.18;9.90;;;11.20;99.90;;;;;;4987747;28;20110;-77
2023/08/30 04:49:21;;;;;;;15.18;9.95;;;11.20;99.90;;;;;;5002866;28;20113;-77
2023/08/30 04:51:47;;;;;;;17.58;9.73;;;11.20;99.90;;;;;;4987376;28;20034;-77
2023/08/30 04:54:13;;;;;;;13.88;9.38;;;11.20;99.90;;;;;;4986400;28;20038;-77
2023/08/30 04:56:39;;;;;;;15.25;9.75;;;11.30;99.90;;;;;;4987259;28;20519;-77
2023/08/30 04:59:05;;;;;;;15.65;9.38;;;11.20;99.90;;;;;;4969037;28;20039;-77
2023/08/30 05:01:30;;;;;;;16.08;9.52;;;11.30;99.90;;;;;;4999197;28;20038;-78
2023/08/30 05:03:56;;;;;;;14.02;9.00;;;11.30;99.90;;;;;;4989423;28;20394;-78
2023/08/30 05:06:22;;;;;;;13.70;9.35;;;11.40;99.90;;;;;;4987582;28;20053;-78
2023/08/30 05:08:47;;;;;;;15.52;9.98;;;11.40;99.90;;;;;;4985017;28;20066;-76
2023/08/30 05:11:13;;;;;;;13.38;9.02;;;11.40;99.90;;;;;;4986458;28;20136;-78
2023/08/30 05:13:39;;;;;;;15.55;9.75;;;11.40;99.90;;;;;;4993716;28;20096;-78
2023/08/30 05:16:05;;;;;;;15.43;9.77;;;11.50;99.90;;;;;;4987839;28;20046;-78
2023/08/30 05:18:30;;;;;;;14.35;9.55;;;11.50;99.90;;;;;;4986844;28;20045;-77
2023/08/30 05:20:56;;;;;;;14.50;9.32;;;11.50;99.90;;;;;;4995719;28;20507;-77
2023/08/30 05:23:21;;;;;;;14.45;8.88;;;11.50;99.90;;;;;;4978327;28;20128;-78
2023/08/30 05:25:48;;;;;;;14.27;8.23;;;11.50;99.90;;;;;;4985552;28;20169;-77
2023/08/30 05:28:14;;;;;;;13.48;8.35;;;11.60;99.90;;;;;;4986952;28;20050;-78
2023/08/30 05:30:43;;;;;;;14.15;8.88;;;11.60;99.90;;;;;;4990697;28;20500;-77
2023/08/30 05:33:08;;;;;;;14.55;9.20;;;11.70;99.90;;;;;;4986201;28;20045;-78
2023/08/30 05:35:34;;;;;;;14.45;8.90;;;11.70;99.90;;;;;;4984527;28;20033;-77
2023/08/30 05:38:00;;;;;;;12.27;8.55;;;11.80;99.90;;;;;;4985035;28;20069;-78
2023/08/30 05:40:25;;;;;;;13.43;8.23;;;11.90;99.90;;;;;;4995153;28;20413;-78
2023/08/30 05:42:51;;;;;;;14.35;8.63;;;12.00;99.90;;;;;;4972224;28;20034;-78
2023/08/30 05:45:16;;;;;;;11.70;7.57;;;12.00;99.90;;;;;;4970478;28;20046;-78
2023/08/30 05:47:42;;;;;;;14.05;8.45;;;12.00;99.90;;;;;;4982624;28;20058;-78
2023/08/30 05:50:08;;;;;;;14.43;8.23;;;12.00;99.90;;;;;;4986167;28;20048;-78
2023/08/30 05:52:34;;;;;;;16.25;8.25;;;12.10;99.90;;;;;;4961786;28;20151;-78
2023/08/30 05:55:00;;;;;;;11.73;8.20;;;12.20;99.90;;;;;;4997598;28;20477;-78
2023/08/30 05:57:27;;;;;;;12.68;8.18;;;12.30;99.90;;;;;;4978550;28;20039;-78
2023/08/30 05:59:53;;;;;;;12.65;7.65;;;12.30;99.90;;;;;;4989078;28;20039;-78
2023/08/30 06:02:18;;;;;;;13.35;8.38;;;12.40;99.90;;;;;;5001436;28;20045;-78
2023/08/30 06:04:44;;;;;;;14.18;7.45;;;12.50;99.90;;;;;;4986418;28;20037;-78
2023/08/30 06:07:09;;;;;;;13.00;8.05;;;12.50;99.90;;;;;;5003577;28;20097;-77
2023/08/30 06:09:35;;;;;;;17.02;8.07;;;12.70;99.90;;;;;;4987272;28;20064;-78
2023/08/30 06:12:01;;;;;;;12.40;7.40;;;12.80;99.90;;;;;;5001391;28;20036;-78
2023/08/30 06:14:26;;;;;;;15.30;8.23;;;12.90;99.90;;;;;;4984414;28;20551;-78
2023/08/30 06:16:52;;;;;;;14.52;8.05;;;12.90;99.90;;;;;;5001878;28;20026;-78
2023/08/30 06:19:17;;;;;;;11.05;7.72;;;13.10;99.90;;;;;;4966747;28;20038;-77
2023/08/30 06:21:44;;;;;;;12.77;8.02;;;13.10;99.90;;;;;;4983114;28;20050;-78
2023/08/30 06:24:09;;;;;;;11.20;7.40;;;13.20;99.90;;;;;;5002547;28;20050;-78
2023/08/30 06:26:35;;;;;;;13.10;7.30;;;13.30;99.90;;;;;;4973810;28;20168;-76
2023/08/30 06:29:00;;;;;;;12.95;7.22;;;13.40;99.90;;;;;;4987152;28;20109;-78
2023/08/30 06:31:27;;;;;;;13.63;8.20;;;13.50;99.90;;;;;;4985030;28;20054;-79
2023/08/30 06:33:53;;;;;;;11.35;7.70;;;13.60;99.90;;;;;;4998392;28;20046;-77
2023/08/30 06:36:18;;;;;;;13.13;7.50;;;13.70;97.60;;;;;;4995018;28;20050;-78
2023/08/30 06:38:44;;;;;;;11.32;7.25;;;13.70;96.20;;;;;;4967508;28;20505;-79
2023/08/30 06:41:10;;;;;;;11.23;7.13;;;13.80;94.50;;;;;;4984598;28;20057;-78
2023/08/30 06:43:37;;;;;;;14.23;7.90;;;13.90;90.60;;;;;;4973570;28;20038;-78
2023/08/30 06:46:03;;;;;;;13.15;8.13;;;14.00;81.10;;;;;;4985637;28;20489;-79
2023/08/30 06:48:29;;;;;;;11.85;7.95;;;14.10;67.10;;;;;;4981367;28;20057;-79
2023/08/30 06:50:58;;;;;;;13.45;7.68;;;14.20;51.10;;;;;;4983611;28;20046;-79
2023/08/30 06:53:26;;;;;;;11.98;7.25;;;14.20;32.50;;;;;;4977555;28;20050;-79
2023/08/30 06:55:58;;;;;;;12.85;7.47;;;14.30;27.10;;;;;;4968523;28;20034;-78
2023/08/30 06:58:24;;;;;;;10.48;6.72;;;14.40;6.40;;;;;;4985633;28;20997;-78
2023/08/30 07:00:50;;;;;;;13.90;7.22;;;14.40;1.00;;;;;;4998401;28;20042;-78
2023/08/30 07:03:15;;;;;;;10.63;6.78;;;14.40;3.10;;;;;;5000770;28;20056;-79
2023/08/30 07:05:43;;;;;;;13.93;7.40;;;14.40;4.00;;;;;;4982732;28;20053;-78
2023/08/30 07:08:09;;;;;;;11.82;7.13;;;14.40;1.00;;;;;;4985615;28;20133;-78
2023/08/30 07:10:34;;;;;;;11.65;7.43;;;14.40;1.00;;;;;;4972814;28;20479;-78
2023/08/30 07:13:00;;;;;;;14.15;7.28;;;14.40;1.00;;;;;;4985686;28;20038;-78
2023/08/30 07:15:26;;;;;;;11.32;7.07;;;14.40;1.00;;;;;;4983526;28;20045;-78
2023/08/30 07:17:51;;;;;;;11.18;6.60;;;14.50;1.00;;;;;;4983202;28;20125;-79
2023/08/30 07:20:17;;;;;;;10.45;7.43;;;14.50;1.00;;;;;;4976706;28;20045;-78
2023/08/30 07:22:43;;;;;;;10.00;6.43;;;14.60;1.00;;;;;;4986963;28;20038;-78
2023/08/30 07:25:10;;;;;;;11.93;7.65;;;14.70;1.00;;;;;;4989905;28;20046;-79
2023/08/30 07:27:36;;;;;;;11.98;7.10;;;14.70;1.00;;;;;;4986447;28;20050;-79
2023/08/30 07:30:04;;;;;;;14.10;7.85;;;14.70;1.00;;;;;;4970613;28;20056;-79
2023/08/30 07:32:29;;;;;;;13.38;8.10;;;14.80;1.00;;;;;;4986156;28;20043;-79
2023/08/30 07:34:55;;;;;;;15.48;7.65;;;14.90;1.00;;;;;;4984252;28;20027;-78
2023/08/30 07:37:21;;;;;;;11.15;7.03;;;15.00;1.00;;;;;;4968443;28;20042;-79
2023/08/30 07:39:47;;;;;;;11.25;7.63;;;15.10;1.00;;;;;;4969135;28;20482;-79
2023/08/30 07:42:14;;;;;;;14.70;8.13;;;15.30;1.00;;;;;;4992847;28;20468;-78
2023/08/30 07:44:40;;;;;;;10.88;7.35;;;15.40;1.00;;;;;;4994715;28;20038;-78
2023/08/30 07:47:05;;;;;;;12.35;7.65;;;15.50;1.00;;;;;;4989834;28;20046;-79
2023/08/30 07:49:31;;;;;;;12.25;6.68;;;15.70;1.00;;;;;;4983714;28;20045;-79
2023/08/30 07:51:56;;;;;;;11.82;7.18;;;15.90;1.00;;;;;;4987012;28;20045;-79
2023/08/30 07:54:22;;;;;;;12.52;7.82;;;16.30;1.00;;;;;;5001114;28;20128;-79
2023/08/30 07:56:47;;;;;;;10.15;6.20;;;16.50;99.90;;;;;;4985568;28;20041;-79
2023/08/30 07:59:13;;;;;;;11.10;7.18;;;16.70;99.90;;;;;;4985922;28;20453;-79
2023/08/30 08:01:39;;;;;;;12.65;6.70;;;16.90;99.90;;;;;;4979460;28;20504;-79
2023/08/30 08:04:04;;;;;;;11.70;6.50;;;17.10;99.90;;;;;;5004705;28;20038;-79
2023/08/30 08:06:30;;;;;;;12.45;7.10;;;17.30;99.90;;;;;;5004291;28;20113;-79
2023/08/30 08:08:56;;;;;;;10.80;6.18;;;17.40;99.90;;;;;;4987513;28;20043;-79
2023/08/30 08:11:21;;;;;;;10.88;7.20;;;17.50;99.90;;;;;;4987973;28;20107;-79
2023/08/30 08:13:47;;;;;;;11.55;6.88;;;17.60;27.10;;;;;;4986701;28;20125;-80
2023/08/30 08:16:12;;;;;;;11.07;7.35;;;17.70;1.00;;;;;;4987162;28;20046;-79
2023/08/30 08:18:38;;;;;;;11.82;7.18;;;17.90;1.00;;;;;;4985692;28;20402;-78
2023/08/30 08:21:04;;;;;;;11.65;6.80;;;18.00;1.00;;;;;;4984139;28;20050;-79
2023/08/30 08:23:29;;;;;;;11.63;7.45;;;18.00;1.00;;;;;;4986708;28;20047;-80
2023/08/30 08:26:02;;;;;;;21.90;10.65;;;18.00;1.00;;;;;;4980666;28;20598;-79
2023/08/30 08:28:28;;;;;;;17.30;9.80;;;17.90;99.90;;;;;;4986150;28;20049;-79
2023/08/30 08:30:54;;;;;;;15.88;7.88;;;17.80;1.00;;;;;;4987497;28;20061;-80
2023/08/30 08:33:22;;;;;;;9.90;7.10;;;17.70;99.90;;;;;;4980421;28;20477;-80
2023/08/30 08:35:49;;;;;;;11.15;7.18;;;17.60;99.90;;;;;;4980877;28;20109;-78
2023/08/30 08:38:15;;;;;;;14.50;7.03;;;17.60;1.00;;;;;;4968489;28;20077;-78
2023/08/30 08:40:40;;;;;;;10.20;6.60;;;17.70;1.00;;;;;;4990902;28;20069;-78
2023/08/30 08:43:06;;;;;;;10.75;7.18;;;17.80;1.00;;;;;;4985112;28;21090;-78
2023/08/30 08:45:36;;;;;;;12.32;7.70;;;17.80;1.00;;;;;;4982034;28;20049;-78
2023/08/30 08:48:04;;;;;;;11.88;7.22;;;17.90;99.90;;;;;;4985390;28;20404;-78
2023/08/30 08:50:31;;;;;;;11.02;7.20;;;17.90;99.90;;;;;;4980332;28;20074;-78
2023/08/30 08:52:57;;;;;;;10.55;6.90;;;18.10;99.90;;;;;;5000853;28;20053;-78
2023/08/30 08:55:23;;;;;;;12.32;7.60;;;18.20;99.90;;;;;;4984519;28;20136;-78
2023/08/30 08:57:49;;;;;;;13.13;7.25;;;18.30;99.90;;;;;;4988465;28;20230;-79
2023/08/30 09:00:16;;;;;;;12.18;7.97;;;18.30;99.90;;;;;;4986410;28;20128;-78
2023/08/30 09:02:42;;;;;;;10.43;7.00;;;18.20;99.90;;;;;;4987377;28;20440;-78
2023/08/30 09:05:09;;;;;;;11.48;7.43;;;18.20;99.90;;;;;;4986212;28;20095;-79
2023/08/30 09:07:36;;;;;;;10.98;7.03;;;18.10;99.90;;;;;;4986598;28;22420;-78
2023/08/30 09:10:02;;;;;;;11.90;7.32;;;18.00;99.90;;;;;;4986432;28;20054;-80
2023/08/30 09:12:33;;;;;;;11.38;6.72;;;18.00;99.90;;;;;;4968859;28;20042;-79
2023/08/30 09:14:59;;;;;;;10.65;6.45;;;17.90;99.90;;;;;;4983732;28;20141;-79
2023/08/30 09:17:38;;;;;;;9.50;6.57;;;17.70;99.90;;;;;;4990781;28;20118;-79
2023/08/30 09:20:09;;;;;;;9.77;6.47;;;17.60;99.90;;;;;;4983892;28;20141;-78
2023/08/30 09:22:38;;;;;;;12.60;7.75;;;17.40;99.90;;;;;;4986242;28;20052;-79
2023/08/30 09:25:04;;;;;;;14.55;7.45;;;17.30;99.90;;;;;;4987320;28;20053;-78
2023/08/30 09:27:33;;;;;;;13.95;7.07;;;17.30;99.90;;;;;;4986602;28;20038;-79
2023/08/30 09:29:59;;;;;;;12.18;6.72;;;17.10;99.90;;;;;;5003867;28;20054;-79
2023/08/30 09:32:25;;;;;;;10.48;6.60;;;17.00;99.90;;;;;;5003752;28;20048;-78
2023/08/30 09:34:51;;;;;;;12.68;6.93;;;16.90;99.90;;;;;;4987341;28;20046;-78
2023/08/30 09:37:23;;;;;;;10.60;6.30;;;16.80;99.90;;;;;;4987099;28;20124;-78
2023/08/30 09:39:52;;;;;;;11.32;7.25;;;16.70;1.00;;;;;;4985595;28;20038;-78
2023/08/30 09:42:18;;;;;;;12.18;7.13;;;16.60;1.00;;;;;;4989506;28;20035;-78
2023/08/30 09:44:44;;;;;;;13.63;7.40;;;16.30;1.00;;;;;;4984920;28;20042;-78
2023/08/30 09:47:09;;;;;;;11.98;6.65;;;16.10;1.00;;;;;;4970093;28;20358;-77
2023/08/30 09:49:45;;;;;;;11.93;6.68;;;15.80;1.00;;;;;;4984631;28;20390;-77
2023/08/30 09:52:14;;;;;;;10.38;6.43;;;15.50;95.70;;;;;;4984972;28;20074;-78
2023/08/30 09:54:43;;;;;;;11.93;7.35;;;15.20;99.90;;;;;;5003680;28;20062;-78
2023/08/30 09:57:10;;;;;;;11.07;6.38;;;15.00;99.90;;;;;;5003778;28;20077;-76
2023/08/30 09:59:37;;;;;;;12.15;7.28;;;14.90;99.90;;;;;;4970649;28;20041;-77
2023/08/30 10:02:05;;;;;;;11.15;6.85;;;15.00;99.90;;;;;;4971627;28;20057;-77
2023/08/30 10:04:32;;;;;;;10.13;7.07;;;15.00;99.90;;;;;;5002575;28;20038;-76
2023/08/30 10:06:59;;;;;;;11.75;6.85;;;14.90;1.00;;;;;;4971724;28;20610;-76
2023/08/30 10:09:25;;;;;;;9.88;6.40;;;14.90;1.00;;;;;;4999141;28;20046;-76
2023/08/30 10:11:51;;;;;;;11.30;6.82;;;14.80;1.00;;;;;;4970041;28;20564;-76
2023/08/30 10:14:17;;;;;;;10.88;7.25;;;14.80;1.00;;;;;;4980838;28;20125;-76
2023/08/30 10:17:00;;;;;;;11.13;7.53;;;14.90;1.00;;;;;;4968835;28;20833;-76
2023/08/30 10:19:27;;;;;;;11.80;7.32;;;15.10;1.00;;;;;;4982711;28;20034;-77
2023/08/30 10:22:05;;;;;;;11.52;7.43;;;15.10;1.00;;;;;;4969381;28;20034;-76
2023/08/30 10:24:36;;;;;;;14.10;7.60;;;15.30;1.00;;;;;;4982019;28;20560;-76
2023/08/30 10:27:05;;;;;;;11.05;7.15;;;15.50;1.00;;;;;;4984599;28;20165;-76
2023/08/30 10:29:34;;;;;;;13.55;8.05;;;15.90;1.00;;;;;;4965294;28;20046;-76
2023/08/30 10:32:04;;;;;;;11.80;7.60;;;16.20;1.00;;;;;;4982370;28;20053;-76
2023/08/30 10:34:34;;;;;;;13.93;6.85;;;16.50;1.00;;;;;;4991644;28;20558;-75
2023/08/30 10:37:01;;;;;;;9.57;6.97;;;16.70;1.00;;;;;;4985623;28;20043;-76
2023/08/30 10:39:37;;;;;;;10.07;5.80;;;16.70;1.00;;;;;;4970011;28;20404;-76
2023/08/30 10:42:15;;;;;;;8.25;5.57;;;16.90;1.00;;;;;;4997628;28;20086;-76
2023/08/30 10:44:52;;;;;;;10.32;6.20;;;16.90;1.00;;;;;;4977076;28;20038;-76
2023/08/30 10:47:28;;;;;;;9.23;6.25;;;16.90;1.00;;;;;;4969793;28;20041;-76
2023/08/30 10:49:58;;;;;;;11.13;6.85;;;16.90;1.00;;;;;;4995925;28;20047;-76
2023/08/30 10:52:25;;;;;;;9.70;5.55;;;17.20;1.00;;;;;;4991192;28;20108;-76
2023/08/30 10:54:52;;;;;;;8.65;6.03;;;17.50;1.00;;;;;;4987427;28;20084;-76
2023/08/30 10:57:24;;;;;;;9.05;6.13;;;17.60;1.00;;;;;;4994036;28;20042;-76
2023/08/30 11:00:08;;;;;;;10.50;5.90;;;17.70;1.00;;;;;;4981266;28;20528;-76
2023/08/30 11:02:34;;;;;;;8.23;5.68;;;17.60;99.90;;;;;;4998564;28;20535;-76
2023/08/30 11:05:00;;;;;;;9.32;5.85;;;17.30;1.00;;;;;;4990985;28;20509;-76
2023/08/30 11:07:26;;;;;;;8.88;5.63;;;17.00;1.00;;;;;;5004620;28;20057;-75
2023/08/30 11:09:52;;;;;;;8.60;5.60;;;16.70;1.00;;;;;;4970396;28;20042;-76
2023/08/30 11:12:19;;;;;;;8.45;5.47;;;16.40;1.00;;;;;;4977417;28;20057;-76
2023/08/30 11:14:45;;;;;;;8.88;5.82;;;16.30;1.00;;;;;;4991034;28;20044;-76
2023/08/30 11:17:10;;;;;;;10.80;6.32;;;16.20;1.00;;;;;;4988284;28;20046;-76
2023/08/30 11:19:36;;;;;;;9.68;6.63;;;16.20;1.00;;;;;;4974725;28;20049;-76
2023/08/30 11:22:02;;;;;;;9.52;6.50;;;16.00;1.00;;;;;;4980260;28;20038;-76
2023/08/30 11:24:28;;;;;;;8.82;6.13;;;16.00;1.00;;;;;;5002148;28;20046;-76
2023/08/30 11:26:54;;;;;;;8.95;5.90;;;15.90;1.00;;;;;;4987900;28;20548;-76
2023/08/30 11:29:20;;;;;;;8.10;5.38;;;15.90;1.00;;;;;;4986953;28;20038;-76
2023/08/30 11:31:46;;;;;;;8.98;5.65;;;15.70;1.00;;;;;;4984265;28;20115;-80
2023/08/30 11:34:12;;;;;;;7.45;5.45;;;15.60;1.00;;;;;;4986010;28;20460;-83
2023/08/30 11:36:39;;;;;;;10.15;6.28;;;15.50;1.00;;;;;;4971967;28;20078;-79
2023/08/30 11:39:05;;;;;;;7.30;5.10;;;15.50;1.00;;;;;;4986745;28;20043;-79
2023/08/30 11:41:31;;;;;;;10.20;5.07;;;15.50;1.00;;;;;;4984475;28;20046;-79
2023/08/30 11:43:58;;;;;;;8.63;5.28;;;15.60;1.00;;;;;;4968266;28;20104;-78
2023/08/30 11:46:24;;;;;;;7.18;4.68;;;15.70;1.40;;;;;;4987239;28;20409;-78
2023/08/30 11:48:51;;;;;;;8.32;5.07;;;15.70;1.00;;;;;;4964830;28;20034;-78
2023/08/30 11:51:18;;;;;;;8.27;4.95;;;15.80;4.50;;;;;;4981626;28;20663;-78
2023/08/30 11:53:45;;;;;;;7.68;4.50;;;15.90;4.80;;;;;;5003644;28;20046;-78
2023/08/30 11:56:11;;;;;;;7.60;5.22;;;16.00;1.00;;;;;;4982191;28;20069;-78
2023/08/30 11:58:37;;;;;;;9.13;5.85;;;15.90;1.00;;;;;;4985996;28;20511;-78
2023/08/30 12:01:07;;;;;;;7.93;4.55;;;15.80;1.00;;;;;;4999826;28;20049;-78
2023/08/30 12:03:33;;;;;;;7.43;5.32;;;15.70;1.00;;;;;;4982549;28;20047;-78
2023/08/30 12:05:59;;;;;;;7.43;5.03;;;15.70;2.90;;;;;;4984325;28;20096;-80
2023/08/30 12:08:28;;;;;;;6.68;5.03;;;15.60;4.30;;;;;;4996579;28;20058;-79
2023/08/30 12:10:55;;;;;;;8.95;4.93;;;15.60;13.00;;;;;;4986400;28;20610;-79
2023/08/30 12:13:25;;;;;;;8.40;5.38;;;15.70;25.20;;;;;;4987882;28;20057;-79
2023/08/30 12:15:58;;;;;;;7.43;5.10;;;15.80;45.00;;;;;;5004904;28;20558;-79
2023/08/30 12:18:28;;;;;;;9.73;5.25;;;16.00;50.90;;;;;;4967103;28;20043;-79
2023/08/30 12:21:01;;;;;;;6.15;4.95;;;16.10;35.00;;;;;;4981914;28;20038;-78
2023/08/30 12:23:29;;;;;;;6.68;5.00;;;16.20;21.20;;;;;;4966419;28;20078;-79
2023/08/30 12:25:59;;;;;;;6.30;4.97;;;16.10;18.50;;;;;;4985503;28;20042;-78
2023/08/30 12:28:29;;;;;;;6.90;4.75;;;16.00;29.70;;;;;;4997671;28;20178;-78
2023/08/30 12:30:55;;;;;;;7.75;4.97;;;16.10;40.00;;;;;;5000634;28;20068;-79
2023/08/30 12:33:21;;;;;;;7.10;4.75;;;16.10;47.10;;;;;;4997958;28;20089;-78
2023/08/30 12:35:47;;;;;;;7.55;4.95;;;16.20;40.20;;;;;;4971980;28;20355;-78
2023/08/30 12:38:17;;;;;;;7.32;5.10;;;16.10;33.40;;;;;;4987662;28;20054;-78
2023/08/30 12:40:46;;;;;;;8.90;5.75;;;15.80;40.70;;;;;;4971884;28;20063;-78